createdAt,value
2022-10-15T00:00:07.235Z,8.87
2022-10-15T00:00:39.865Z,8.88
2022-10-15T00:01:15.379Z,8.90
2022-10-15T00:01:47.331Z,8.90
2022-10-15T00:02:19.502Z,8.92
2022-10-15T00:02:51.439Z,8.89
2022-10-15T00:03:23.234Z,8.86
2022-10-15T00:03:55.273Z,8.80
2022-10-15T00:04:27.164Z,8.80
2022-10-15T00:04:59.157Z,8.81
2022-10-15T00:05:31.030Z,8.77
2022-10-15T00:06:10.239Z,8.75
2022-10-15T00:10:51.128Z,8.77
2022-10-15T00:11:26.114Z,8.83
2022-10-15T00:11:57.899Z,8.83
2022-10-15T00:12:29.601Z,8.79
2022-10-15T00:13:34.061Z,8.73
2022-10-15T00:14:05.810Z,8.73
2022-10-15T00:14:37.585Z,8.72
2022-10-15T00:15:10.853Z,8.72
2022-10-15T00:15:42.673Z,8.68
2022-10-15T00:16:20.053Z,8.66
2022-10-15T00:16:51.879Z,8.68
2022-10-15T00:17:23.812Z,8.68
2022-10-15T00:17:56.111Z,8.70
2022-10-15T00:18:28.042Z,8.71
2022-10-15T00:19:00.288Z,8.74
2022-10-15T00:19:32.160Z,8.68
2022-10-15T00:20:05.996Z,8.69
2022-10-15T00:20:41.848Z,8.70
2022-10-15T00:21:15.590Z,8.72
2022-10-15T00:21:47.502Z,8.77
2022-10-15T00:22:19.566Z,8.77
2022-10-15T00:22:51.460Z,8.77
2022-10-15T00:23:23.526Z,8.78
2022-10-15T00:23:55.482Z,8.72
2022-10-15T00:24:27.656Z,8.65
2022-10-15T00:25:00.550Z,8.68
2022-10-15T00:25:32.243Z,8.72
2022-10-15T00:26:06.824Z,8.72
2022-10-15T00:26:38.677Z,8.72
2022-10-15T00:27:10.486Z,8.75
2022-10-15T00:27:42.335Z,8.71
2022-10-15T00:28:14.209Z,8.77
2022-10-15T00:28:46.562Z,8.71
2022-10-15T00:29:18.635Z,8.74
2022-10-15T00:29:50.397Z,8.79
2022-10-15T00:30:22.241Z,8.77
2022-10-15T00:31:01.149Z,8.72
2022-10-15T00:31:33.402Z,8.78
2022-10-15T00:32:05.407Z,8.73
2022-10-15T00:32:37.343Z,8.79
2022-10-15T00:33:11.218Z,8.81
2022-10-15T00:33:44.132Z,8.84
2022-10-15T00:34:17.073Z,8.86
2022-10-15T00:34:48.957Z,8.87
2022-10-15T00:35:20.763Z,8.86
2022-10-15T00:36:03.321Z,8.81
2022-10-15T00:36:36.952Z,8.83
2022-10-15T00:37:09.279Z,8.87
2022-10-15T00:37:41.440Z,8.90
2022-10-15T00:38:13.566Z,8.92
2022-10-15T00:38:46.032Z,8.95
2022-10-15T00:39:18.724Z,8.97
2022-10-15T00:39:51.355Z,8.93
2022-10-15T00:40:23.509Z,8.95
2022-10-15T00:40:55.940Z,8.95
2022-10-15T00:41:31.598Z,9.03
2022-10-15T00:42:03.584Z,9.04
2022-10-15T00:42:35.441Z,9.04
2022-10-15T00:43:10.989Z,9.06
2022-10-15T00:43:51.643Z,9.10
2022-10-15T00:44:26.819Z,9.15
2022-10-15T00:44:59.696Z,9.22
2022-10-15T00:45:31.551Z,9.26
2022-10-15T00:46:04.288Z,9.28
2022-10-15T00:46:41.194Z,9.32
2022-10-15T00:47:21.325Z,9.39
2022-10-15T00:47:53.391Z,9.39
2022-10-15T00:48:25.517Z,9.43
2022-10-15T00:49:08.636Z,9.45
2022-10-15T00:49:56.280Z,9.48
2022-10-15T00:50:28.241Z,9.56
2022-10-15T00:51:04.925Z,9.54
2022-10-15T00:51:41.610Z,9.52
2022-10-15T00:52:45.493Z,9.54
2022-10-15T00:53:17.499Z,9.54
2022-10-15T00:53:50.675Z,9.56
2022-10-15T00:54:24.094Z,9.57
2022-10-15T00:55:00.525Z,9.60
2022-10-15T00:55:37.493Z,9.59
2022-10-15T00:56:09.584Z,9.57
2022-10-15T00:56:44.208Z,9.57
2022-10-15T00:57:16.370Z,9.59
2022-10-15T00:57:49.958Z,9.64
2022-10-15T00:58:28.064Z,9.65
2022-10-15T00:59:00.855Z,9.66
2022-10-15T00:59:34.954Z,9.65
2022-10-15T01:00:10.514Z,9.67
2022-10-15T01:00:44.551Z,9.73
2022-10-15T01:01:16.838Z,9.77
2022-10-15T01:01:48.942Z,9.75
2022-10-15T01:02:21.842Z,9.78
2022-10-15T01:02:54.842Z,9.76
2022-10-15T01:03:26.754Z,9.75
2022-10-15T01:03:59.010Z,9.78
2022-10-15T01:04:31.511Z,9.77
2022-10-15T01:05:04.426Z,9.76
2022-10-15T01:05:37.683Z,9.77
2022-10-15T01:06:09.552Z,9.77
2022-10-15T01:06:41.377Z,9.77
2022-10-15T01:07:14.279Z,9.78
2022-10-15T01:07:46.230Z,9.75
2022-10-15T01:11:50.273Z,9.73
2022-10-15T01:12:40.339Z,9.74
2022-10-15T01:13:39.848Z,9.73
2022-10-15T01:14:44.887Z,9.76
2022-10-15T01:15:21.224Z,9.68
2022-10-15T01:16:00.730Z,9.69
2022-10-15T01:16:53.957Z,9.69
2022-10-15T01:17:47.953Z,9.71
2022-10-15T01:18:32.949Z,9.77
2022-10-15T01:19:11.995Z,9.74
2022-10-15T01:20:03.984Z,9.71
2022-10-15T01:20:51.544Z,9.71
2022-10-15T01:21:33.837Z,9.69
2022-10-15T01:22:10.598Z,9.69
2022-10-15T01:23:07.453Z,9.65
2022-10-15T01:23:46.852Z,9.57
2022-10-15T01:24:36.756Z,9.57
2022-10-15T01:25:23.952Z,9.58
2022-10-15T01:26:25.889Z,9.60
2022-10-15T01:27:54.275Z,9.54
2022-10-15T01:28:43.265Z,9.47
2022-10-15T01:29:42.491Z,9.47
2022-10-15T01:30:32.610Z,9.48
2022-10-15T01:31:16.243Z,9.52
2022-10-15T01:32:04.112Z,9.52
2022-10-15T01:32:55.866Z,9.50
2022-10-15T01:33:45.528Z,9.46
2022-10-15T01:34:27.491Z,9.47
2022-10-15T01:35:14.036Z,9.47
2022-10-15T01:35:49.141Z,9.48
2022-10-15T01:40:34.830Z,9.35
2022-10-15T01:41:10.808Z,9.33
2022-10-15T01:41:49.399Z,9.35
2022-10-15T01:42:33.512Z,9.35
2022-10-15T01:43:13.561Z,9.30
2022-10-15T01:44:05.525Z,9.28
2022-10-15T01:44:54.936Z,9.32
2022-10-15T01:45:51.992Z,9.28
2022-10-15T01:46:51.237Z,9.30
2022-10-15T01:47:36.235Z,9.31
2022-10-15T01:48:10.793Z,9.28
2022-10-15T01:48:43.196Z,9.32
2022-10-15T01:49:21.443Z,9.31
2022-10-15T01:49:54.250Z,9.26
2022-10-15T01:50:27.964Z,9.30
2022-10-15T01:51:04.476Z,9.31
2022-10-15T01:51:38.419Z,9.30
2022-10-15T01:52:15.376Z,9.32
2022-10-15T01:52:48.284Z,9.34
2022-10-15T01:53:26.795Z,9.34
2022-10-15T01:53:59.864Z,9.35
2022-10-15T01:54:31.691Z,9.35
2022-10-15T01:55:06.363Z,9.34
2022-10-15T01:55:42.728Z,9.38
2022-10-15T01:56:19.398Z,9.38
2022-10-15T01:56:52.091Z,9.37
2022-10-15T01:57:28.045Z,9.36
2022-10-15T01:58:00.887Z,9.32
2022-10-15T01:58:33.207Z,9.32
2022-10-15T01:59:05.697Z,9.35
2022-10-15T01:59:37.673Z,9.34
2022-10-15T02:00:09.893Z,9.34
2022-10-15T02:05:03.671Z,9.30
2022-10-15T02:05:49.001Z,9.31
2022-10-15T02:06:34.828Z,9.31
2022-10-15T02:07:07.561Z,9.31
2022-10-15T02:07:58.052Z,9.33
2022-10-15T02:08:56.519Z,9.34
2022-10-15T02:09:50.366Z,9.35
2022-10-15T02:10:42.262Z,9.33
2022-10-15T02:11:15.814Z,9.33
2022-10-15T02:12:06.026Z,9.31
2022-10-15T02:12:48.356Z,9.28
2022-10-15T02:13:29.004Z,9.30
2022-10-15T02:14:10.923Z,9.25
2022-10-15T02:15:08.104Z,9.27
2022-10-15T02:15:56.528Z,9.27
2022-10-15T02:16:39.894Z,9.29
2022-10-15T02:17:12.046Z,9.25
2022-10-15T02:17:48.349Z,9.26
2022-10-15T02:18:30.154Z,9.27
2022-10-15T02:19:19.088Z,9.29
2022-10-15T02:20:02.048Z,9.28
2022-10-15T02:20:54.412Z,9.29
2022-10-15T02:21:55.426Z,9.31
2022-10-15T02:22:32.916Z,9.31
2022-10-15T02:23:11.285Z,9.33
2022-10-15T02:24:09.285Z,9.33
2022-10-15T02:24:54.685Z,9.32
2022-10-15T02:25:28.511Z,9.32
2022-10-15T02:26:00.402Z,9.30
2022-10-15T02:26:33.956Z,9.30
2022-10-15T02:27:06.607Z,9.33
2022-10-15T02:27:41.696Z,9.34
2022-10-15T02:28:15.201Z,9.35
2022-10-15T02:28:52.889Z,9.35
2022-10-15T02:29:27.808Z,9.35
2022-10-15T02:30:02.206Z,9.35
2022-10-15T02:33:59.620Z,9.38
2022-10-15T02:34:32.984Z,9.35
2022-10-15T02:35:07.378Z,9.34
2022-10-15T02:35:43.494Z,9.35
2022-10-15T02:36:15.475Z,9.36
2022-10-15T02:36:47.832Z,9.37
2022-10-15T02:37:21.669Z,9.38
2022-10-15T02:37:55.115Z,9.39
2022-10-15T02:38:28.152Z,9.39
2022-10-15T02:39:01.410Z,9.40
2022-10-15T02:39:34.122Z,9.41
2022-10-15T02:40:06.223Z,9.41
2022-10-15T02:40:39.026Z,9.40
2022-10-15T02:41:12.151Z,9.42
2022-10-15T02:41:44.229Z,9.44
2022-10-15T02:42:18.455Z,9.46
2022-10-15T02:42:52.972Z,9.44
2022-10-15T02:43:25.043Z,9.39
2022-10-15T02:43:56.845Z,9.40
2022-10-15T02:44:28.955Z,9.41
2022-10-15T02:45:00.748Z,9.38
2022-10-15T02:45:32.703Z,9.40
2022-10-15T02:46:05.891Z,9.37
2022-10-15T02:46:37.605Z,9.37
2022-10-15T02:47:10.415Z,9.39
2022-10-15T02:47:44.077Z,9.39
2022-10-15T02:48:15.938Z,9.42
2022-10-15T02:48:47.703Z,9.39
2022-10-15T02:49:22.670Z,9.40
2022-10-15T02:49:55.455Z,9.40
2022-10-15T02:50:27.279Z,9.43
2022-10-15T02:50:59.078Z,9.41
2022-10-15T02:51:35.208Z,9.39
2022-10-15T02:52:07.056Z,9.40
2022-10-15T02:52:38.904Z,9.41
2022-10-15T02:53:10.657Z,9.41
2022-10-15T02:53:43.556Z,9.42
2022-10-15T02:54:15.176Z,9.42
2022-10-15T02:54:47.002Z,9.43
2022-10-15T02:55:18.880Z,9.43
2022-10-15T02:55:50.666Z,9.43
2022-10-15T02:56:22.872Z,9.45
2022-10-15T02:56:54.587Z,9.44
2022-10-15T02:57:26.652Z,9.43
2022-10-15T02:57:58.619Z,9.45
2022-10-15T02:58:30.990Z,9.44
2022-10-15T02:59:03.391Z,9.46
2022-10-15T02:59:35.756Z,9.46
2022-10-15T03:00:08.281Z,9.47
2022-10-15T03:00:40.508Z,9.46
2022-10-15T03:01:12.934Z,9.46
2022-10-15T03:01:44.884Z,9.46
2022-10-15T03:02:19.346Z,9.45
2022-10-15T03:02:52.117Z,9.48
2022-10-15T03:03:24.685Z,9.46
2022-10-15T03:03:57.603Z,9.47
2022-10-15T03:04:30.251Z,9.48
2022-10-15T03:05:03.407Z,9.49
2022-10-15T03:05:35.680Z,9.51
2022-10-15T03:06:07.616Z,9.50
2022-10-15T03:06:39.416Z,9.50
2022-10-15T03:07:11.498Z,9.49
2022-10-15T03:07:43.774Z,9.48
2022-10-15T03:08:15.642Z,9.47
2022-10-15T03:08:47.356Z,9.46
2022-10-15T03:09:19.249Z,9.46
2022-10-15T03:09:52.115Z,9.48
2022-10-15T03:10:23.977Z,9.49
2022-10-15T03:10:55.617Z,9.49
2022-10-15T03:11:27.244Z,9.48
2022-10-15T03:11:58.928Z,9.47
2022-10-15T03:12:31.165Z,9.48
2022-10-15T03:13:04.639Z,9.48
2022-10-15T03:13:39.644Z,9.44
2022-10-15T03:14:11.311Z,9.43
2022-10-15T03:14:43.613Z,9.46
2022-10-15T03:15:15.573Z,9.47
2022-10-15T03:15:49.649Z,9.48
2022-10-15T03:16:21.525Z,9.49
2022-10-15T03:16:53.318Z,9.50
2022-10-15T03:17:25.334Z,9.52
2022-10-15T03:17:57.285Z,9.51
2022-10-15T03:18:28.990Z,9.53
2022-10-15T03:19:00.698Z,9.52
2022-10-15T03:19:32.830Z,9.53
2022-10-15T03:20:05.327Z,9.55
2022-10-15T03:20:40.904Z,9.56
2022-10-15T03:24:38.551Z,9.57
2022-10-15T03:25:10.652Z,9.58
2022-10-15T03:25:42.977Z,9.57
2022-10-15T03:26:22.290Z,9.55
2022-10-15T03:26:55.239Z,9.57
2022-10-15T03:27:27.458Z,9.56
2022-10-15T03:27:59.208Z,9.55
2022-10-15T03:28:39.234Z,9.55
2022-10-15T03:29:11.281Z,9.56
2022-10-15T03:29:48.718Z,9.58
2022-10-15T03:30:20.469Z,9.59
2022-10-15T03:30:52.369Z,9.58
2022-10-15T03:31:24.212Z,9.55
2022-10-15T03:31:56.162Z,9.56
2022-10-15T03:32:27.996Z,9.58
2022-10-15T03:32:59.644Z,9.59
2022-10-15T03:33:31.879Z,9.59
2022-10-15T03:34:03.880Z,9.56
2022-10-15T03:34:35.917Z,9.57
2022-10-15T03:35:08.052Z,9.56
2022-10-15T03:35:40.069Z,9.54
2022-10-15T03:36:12.702Z,9.55
2022-10-15T03:36:44.368Z,9.53
2022-10-15T03:37:16.908Z,9.51
2022-10-15T03:37:48.787Z,9.53
2022-10-15T03:38:21.238Z,9.52
2022-10-15T03:38:55.305Z,9.52
2022-10-15T03:39:28.154Z,9.54
2022-10-15T03:40:04.841Z,9.56
2022-10-15T03:40:36.767Z,9.55
2022-10-15T03:41:24.297Z,9.47
2022-10-15T03:41:56.376Z,9.47
2022-10-15T03:42:36.138Z,9.46
2022-10-15T03:43:09.114Z,9.42
2022-10-15T03:43:42.890Z,9.40
2022-10-15T03:44:15.503Z,9.39
2022-10-15T03:44:50.488Z,9.38
2022-10-15T03:45:24.989Z,9.38
2022-10-15T03:46:09.724Z,9.38
2022-10-15T03:50:29.473Z,9.31
2022-10-15T03:51:05.265Z,9.27
2022-10-15T03:51:37.124Z,9.26
2022-10-15T03:52:14.832Z,9.22
2022-10-15T03:57:01.623Z,9.09
2022-10-15T03:57:38.772Z,9.07
2022-10-15T03:58:10.957Z,9.04
2022-10-15T03:58:50.507Z,8.98
2022-10-15T03:59:22.450Z,8.98
2022-10-15T04:00:01.625Z,8.96
2022-10-15T04:00:45.125Z,8.96
2022-10-15T04:01:17.896Z,8.96
2022-10-15T04:01:49.620Z,8.97
2022-10-15T04:02:22.914Z,8.88
2022-10-15T04:02:54.880Z,8.88
2022-10-15T04:03:30.692Z,8.90
2022-10-15T04:04:04.469Z,8.89
2022-10-15T04:04:36.314Z,8.87
2022-10-15T04:05:08.184Z,8.86
2022-10-15T04:05:40.409Z,8.85
2022-10-15T04:06:14.998Z,8.83
2022-10-15T04:06:47.934Z,8.82
2022-10-15T04:07:21.610Z,8.80
2022-10-15T04:07:53.335Z,8.78
2022-10-15T04:08:26.258Z,8.76
2022-10-15T04:08:57.972Z,8.76
2022-10-15T04:09:30.441Z,8.74
2022-10-15T04:10:22.218Z,8.79
2022-10-15T04:10:54.552Z,8.76
2022-10-15T04:11:26.228Z,8.73
2022-10-15T04:12:06.426Z,8.72
2022-10-15T04:16:00.720Z,8.59
2022-10-15T04:16:33.433Z,8.57
2022-10-15T04:17:12.284Z,8.57
2022-10-15T04:17:44.246Z,8.55
2022-10-15T04:18:16.848Z,8.53
2022-10-15T04:18:49.308Z,8.56
2022-10-15T04:19:20.899Z,8.58
2022-10-15T04:20:03.203Z,8.57
2022-10-15T04:20:34.796Z,8.59
2022-10-15T04:21:16.536Z,8.58
2022-10-15T04:21:52.979Z,8.59
2022-10-15T04:22:43.769Z,8.57
2022-10-15T04:23:16.688Z,8.52
2022-10-15T04:24:03.363Z,8.47
2022-10-15T04:24:40.332Z,8.41
2022-10-15T04:25:12.181Z,8.42
2022-10-15T04:25:44.345Z,8.42
2022-10-15T04:26:16.276Z,8.41
2022-10-15T04:26:47.931Z,8.40
2022-10-15T04:27:19.599Z,8.40
2022-10-15T04:27:53.607Z,8.42
2022-10-15T04:28:25.317Z,8.42
2022-10-15T04:28:57.116Z,8.40
2022-10-15T04:29:29.077Z,8.43
2022-10-15T04:30:14.052Z,8.42
2022-10-15T04:30:58.074Z,8.43
2022-10-15T04:31:29.947Z,8.45
2022-10-15T04:32:02.523Z,8.41
2022-10-15T04:32:34.247Z,8.40
2022-10-15T04:33:05.857Z,8.42
2022-10-15T04:33:37.763Z,8.42
2022-10-15T04:34:09.575Z,8.42
2022-10-15T04:34:41.720Z,8.40
2022-10-15T04:35:14.074Z,8.39
2022-10-15T04:36:05.758Z,8.42
2022-10-15T04:37:03.481Z,8.43
2022-10-15T04:37:35.552Z,8.45
2022-10-15T04:38:07.186Z,8.41
2022-10-15T04:39:08.573Z,8.42
2022-10-15T04:39:47.494Z,8.44
2022-10-15T04:40:19.506Z,8.48
2022-10-15T04:41:00.511Z,8.47
2022-10-15T04:41:36.483Z,8.48
2022-10-15T04:42:11.863Z,8.53
2022-10-15T04:42:43.512Z,8.54
2022-10-15T04:43:15.358Z,8.55
2022-10-15T04:43:47.234Z,8.55
2022-10-15T04:44:19.055Z,8.56
2022-10-15T04:44:57.932Z,8.59
2022-10-15T04:45:29.503Z,8.61
2022-10-15T04:46:03.842Z,8.64
2022-10-15T04:46:35.587Z,8.62
2022-10-15T04:47:15.360Z,8.66
2022-10-15T04:47:54.848Z,8.67
2022-10-15T04:48:31.342Z,8.68
2022-10-15T04:49:03.384Z,8.71
2022-10-15T04:49:35.007Z,8.72
2022-10-15T04:50:12.824Z,8.75
2022-10-15T04:54:34.680Z,8.85
2022-10-15T04:55:09.083Z,8.86
2022-10-15T04:59:21.655Z,8.93
2022-10-15T05:00:22.356Z,9.01
2022-10-15T05:01:30.844Z,9.06
2022-10-15T05:02:11.605Z,9.09
2022-10-15T05:06:05.918Z,9.15
2022-10-15T05:06:38.178Z,9.15
2022-10-15T05:07:21.165Z,9.18
2022-10-15T05:07:54.068Z,9.20
2022-10-15T05:08:26.349Z,9.20
2022-10-15T05:09:20.985Z,9.25
2022-10-15T05:09:55.019Z,9.25
2022-10-15T05:10:26.853Z,9.26
2022-10-15T05:11:06.181Z,9.28
2022-10-15T05:11:38.301Z,9.28
2022-10-15T05:12:16.045Z,9.30
2022-10-15T05:12:49.385Z,9.31
2022-10-15T05:13:32.275Z,9.31
2022-10-15T05:17:25.019Z,9.35
2022-10-15T05:17:59.058Z,9.35
2022-10-15T05:18:39.140Z,9.36
2022-10-15T05:19:11.173Z,9.37
2022-10-15T05:19:43.869Z,9.37
2022-10-15T05:20:22.434Z,9.39
2022-10-15T05:20:54.125Z,9.41
2022-10-15T05:21:27.415Z,9.45
2022-10-15T05:26:26.114Z,9.54
2022-10-15T05:26:57.944Z,9.55
2022-10-15T05:27:32.007Z,9.55
2022-10-15T05:28:05.235Z,9.56
2022-10-15T05:28:37.370Z,9.57
2022-10-15T05:29:09.604Z,9.56
2022-10-15T05:29:41.457Z,9.57
2022-10-15T05:30:14.730Z,9.57
2022-10-15T05:30:52.757Z,9.60
2022-10-15T05:31:26.271Z,9.59
2022-10-15T05:32:07.015Z,9.57
2022-10-15T05:32:38.820Z,9.57
2022-10-15T05:33:15.474Z,9.57
2022-10-15T05:33:48.594Z,9.57
2022-10-15T05:34:20.627Z,9.57
2022-10-15T05:35:00.206Z,9.58
2022-10-15T05:35:44.249Z,9.58
2022-10-15T05:36:24.458Z,9.60
2022-10-15T05:37:00.008Z,9.60
2022-10-15T05:37:31.817Z,9.60
2022-10-15T05:38:04.792Z,9.62
2022-10-15T05:38:36.838Z,9.64
2022-10-15T05:39:10.685Z,9.66
2022-10-15T05:39:46.535Z,9.69
2022-10-15T05:40:21.178Z,9.69
2022-10-15T05:41:06.272Z,9.68
2022-10-15T05:41:38.051Z,9.71
2022-10-15T05:42:10.468Z,9.70
2022-10-15T05:43:25.619Z,9.73
2022-10-15T05:43:58.639Z,9.72
2022-10-15T05:44:33.273Z,9.74
2022-10-15T05:45:05.297Z,9.75
2022-10-15T05:45:36.903Z,9.76
2022-10-15T05:46:10.715Z,9.76
2022-10-15T05:46:42.707Z,9.77
2022-10-15T05:47:18.150Z,9.78
2022-10-15T05:52:13.822Z,9.86
2022-10-15T05:53:07.976Z,9.88
2022-10-15T05:53:46.561Z,9.91
2022-10-15T05:54:18.181Z,9.90
2022-10-15T05:54:49.868Z,9.91
2022-10-15T05:55:22.530Z,9.92
2022-10-15T05:55:54.373Z,9.93
2022-10-15T05:56:31.080Z,9.94
2022-10-15T05:57:02.812Z,9.96
2022-10-15T05:57:34.538Z,9.96
2022-10-15T05:58:08.132Z,9.97
2022-10-15T05:58:40.693Z,9.98
2022-10-15T05:59:13.316Z,9.99
2022-10-15T05:59:45.642Z,9.99
2022-10-15T06:00:18.222Z,10.00
2022-10-15T06:00:58.300Z,10.01
2022-10-15T06:01:29.967Z,10.01
2022-10-15T06:02:01.723Z,10.03
2022-10-15T06:02:33.754Z,10.03
2022-10-15T06:03:06.164Z,10.04
2022-10-15T06:03:38.638Z,10.06
2022-10-15T06:04:10.416Z,10.09
2022-10-15T06:04:43.775Z,10.10
2022-10-15T06:05:15.665Z,10.08
2022-10-15T06:05:47.322Z,10.11
2022-10-15T06:06:21.675Z,10.11
2022-10-15T06:06:53.302Z,10.11
2022-10-15T06:07:25.128Z,10.13
2022-10-15T06:07:57.497Z,10.15
2022-10-15T06:08:30.101Z,10.19
2022-10-15T06:09:04.482Z,10.19
2022-10-15T06:09:36.112Z,10.20
2022-10-15T06:10:07.916Z,10.24
2022-10-15T06:10:39.997Z,10.28
2022-10-15T06:11:11.702Z,10.27
2022-10-15T06:11:43.257Z,10.26
2022-10-15T06:12:15.528Z,10.26
2022-10-15T06:12:50.811Z,10.30
2022-10-15T06:13:22.795Z,10.29
2022-10-15T06:13:54.534Z,10.31
2022-10-15T06:14:26.824Z,10.32
2022-10-15T06:14:58.322Z,10.32
2022-10-15T06:15:29.979Z,10.34
2022-10-15T06:16:03.418Z,10.33
2022-10-15T06:16:34.961Z,10.34
2022-10-15T06:17:06.647Z,10.36
2022-10-15T06:17:38.307Z,10.38
2022-10-15T06:18:10.909Z,10.38
2022-10-15T06:18:42.386Z,10.39
2022-10-15T06:19:15.216Z,10.38
2022-10-15T06:19:46.700Z,10.39
2022-10-15T06:20:18.644Z,10.41
2022-10-15T06:20:53.284Z,10.44
2022-10-15T06:21:25.155Z,10.44
2022-10-15T06:21:56.632Z,10.44
2022-10-15T06:22:31.163Z,10.44
2022-10-15T06:23:05.001Z,10.44
2022-10-15T06:23:36.933Z,10.45
2022-10-15T06:24:10.063Z,10.48
2022-10-15T06:24:41.970Z,10.51
2022-10-15T06:25:14.793Z,10.49
2022-10-15T06:25:46.504Z,10.51
2022-10-15T06:26:18.126Z,10.51
2022-10-15T06:26:52.747Z,10.53
2022-10-15T06:27:24.497Z,10.52
2022-10-15T06:27:56.246Z,10.53
2022-10-15T06:28:32.262Z,10.54
2022-10-15T06:29:03.934Z,10.55
2022-10-15T06:29:35.562Z,10.60
2022-10-15T06:30:08.671Z,10.60
2022-10-15T06:30:40.223Z,10.60
2022-10-15T06:31:12.335Z,10.60
2022-10-15T06:31:43.894Z,10.61
2022-10-15T06:32:15.371Z,10.61
2022-10-15T06:32:51.241Z,10.62
2022-10-15T06:33:22.705Z,10.62
2022-10-15T06:33:54.179Z,10.66
2022-10-15T06:34:25.662Z,10.64
2022-10-15T06:34:57.144Z,10.65
2022-10-15T06:35:33.395Z,10.65
2022-10-15T06:36:07.255Z,10.67
2022-10-15T06:36:38.725Z,10.67
2022-10-15T06:37:10.420Z,10.67
2022-10-15T06:37:41.867Z,10.69
2022-10-15T06:38:13.313Z,10.71
2022-10-15T06:38:47.519Z,10.72
2022-10-15T06:39:19.135Z,10.72
2022-10-15T06:39:50.707Z,10.72
2022-10-15T06:40:22.153Z,10.75
2022-10-15T06:40:53.644Z,10.76
2022-10-15T06:41:25.297Z,10.76
2022-10-15T06:41:57.019Z,10.77
2022-10-15T06:42:34.819Z,10.79
2022-10-15T06:43:10.866Z,10.80
2022-10-15T06:43:42.748Z,10.79
2022-10-15T06:44:14.492Z,10.81
2022-10-15T06:44:45.938Z,10.83
2022-10-15T06:45:21.888Z,10.84
2022-10-15T06:45:53.514Z,10.86
2022-10-15T06:46:25.007Z,10.87
2022-10-15T06:46:56.728Z,10.89
2022-10-15T06:47:28.186Z,10.92
2022-10-15T06:47:59.639Z,10.89
2022-10-15T06:48:31.312Z,10.96
2022-10-15T06:49:02.915Z,10.95
2022-10-15T06:49:34.371Z,10.94
2022-10-15T06:50:06.763Z,10.93
2022-10-15T06:50:39.215Z,10.95
2022-10-15T06:51:11.267Z,10.97
2022-10-15T06:51:42.770Z,10.99
2022-10-15T06:52:14.235Z,10.98
2022-10-15T06:52:45.779Z,10.99
2022-10-15T06:53:17.583Z,10.99
2022-10-15T06:53:49.083Z,11.01
2022-10-15T06:54:20.599Z,10.99
2022-10-15T06:54:52.420Z,11.01
2022-10-15T06:55:26.312Z,11.02
2022-10-15T06:55:58.551Z,11.04
2022-10-15T06:56:30.006Z,11.05
2022-10-15T06:57:01.456Z,11.05
2022-10-15T06:57:32.946Z,11.04
2022-10-15T06:58:04.398Z,11.04
2022-10-15T06:58:35.867Z,11.05
2022-10-15T06:59:07.444Z,11.06
2022-10-15T06:59:41.338Z,11.06
2022-10-15T07:00:13.980Z,11.09
2022-10-15T07:00:45.428Z,11.10
2022-10-15T07:01:17.262Z,11.10
2022-10-15T07:01:48.697Z,11.10
2022-10-15T07:02:20.497Z,11.11
2022-10-15T07:02:52.659Z,11.13
2022-10-15T07:03:24.196Z,11.13
2022-10-15T07:03:55.685Z,11.19
2022-10-15T07:04:27.186Z,11.23
2022-10-15T07:04:58.647Z,11.20
2022-10-15T07:05:30.135Z,11.22
2022-10-15T07:06:03.556Z,11.22
2022-10-15T07:06:35.750Z,11.23
2022-10-15T07:07:07.308Z,11.25
2022-10-15T07:07:39.072Z,11.23
2022-10-15T07:08:11.584Z,11.22
2022-10-15T07:08:45.873Z,11.28
2022-10-15T07:09:17.439Z,11.25
2022-10-15T07:09:53.116Z,11.26
2022-10-15T07:10:25.973Z,11.26
2022-10-15T07:10:57.640Z,11.28
2022-10-15T07:11:30.557Z,11.28
2022-10-15T07:12:02.160Z,11.28
2022-10-15T07:12:34.113Z,11.33
2022-10-15T07:13:05.575Z,11.31
2022-10-15T07:13:37.805Z,11.33
2022-10-15T07:14:10.258Z,11.33
2022-10-15T07:14:42.565Z,11.29
2022-10-15T07:15:14.581Z,11.28
2022-10-15T07:15:47.326Z,11.30
2022-10-15T07:16:18.810Z,11.32
2022-10-15T07:16:50.307Z,11.31
2022-10-15T07:17:21.783Z,11.33
2022-10-15T07:18:01.245Z,11.31
2022-10-15T07:18:33.776Z,11.32
2022-10-15T07:19:05.768Z,11.32
2022-10-15T07:19:37.282Z,11.32
2022-10-15T07:20:08.938Z,11.31
2022-10-15T07:20:40.653Z,11.30
2022-10-15T07:21:12.144Z,11.32
2022-10-15T07:21:43.710Z,11.35
2022-10-15T07:22:16.084Z,11.31
2022-10-15T07:22:48.756Z,11.31
2022-10-15T07:23:24.083Z,11.35
2022-10-15T07:24:00.877Z,11.30
2022-10-15T07:24:32.974Z,11.32
2022-10-15T07:25:04.814Z,11.35
2022-10-15T07:25:36.379Z,11.35
2022-10-15T07:26:07.951Z,11.32
2022-10-15T07:26:39.536Z,11.33
2022-10-15T07:27:18.643Z,11.35
2022-10-15T07:27:50.922Z,11.32
2022-10-15T07:28:22.430Z,11.37
2022-10-15T07:28:53.948Z,11.35
2022-10-15T07:29:25.454Z,11.33
2022-10-15T07:29:56.968Z,11.32
2022-10-15T07:30:28.754Z,11.38
2022-10-15T07:31:02.387Z,11.34
2022-10-15T07:31:34.571Z,11.36
2022-10-15T07:32:06.606Z,11.37
2022-10-15T07:32:38.269Z,11.34
2022-10-15T07:33:10.043Z,11.37
2022-10-15T07:33:42.771Z,11.38
2022-10-15T07:34:14.283Z,11.38
2022-10-15T07:34:45.793Z,11.39
2022-10-15T07:35:17.397Z,11.39
2022-10-15T07:35:48.923Z,11.39
2022-10-15T07:36:20.829Z,11.42
2022-10-15T07:36:52.347Z,11.44
2022-10-15T07:37:23.818Z,11.45
2022-10-15T07:37:55.439Z,11.41
2022-10-15T07:38:26.934Z,11.41
2022-10-15T07:38:58.401Z,11.40
2022-10-15T07:39:29.910Z,11.40
2022-10-15T07:40:01.772Z,11.41
2022-10-15T07:40:33.285Z,11.43
2022-10-15T07:41:05.132Z,11.44
2022-10-15T07:41:45.728Z,11.42
2022-10-15T07:42:17.190Z,11.42
2022-10-15T07:42:55.889Z,11.42
2022-10-15T07:43:30.623Z,11.42
2022-10-15T07:44:02.526Z,11.42
2022-10-15T07:44:34.003Z,11.48
2022-10-15T07:45:06.056Z,11.51
2022-10-15T07:45:37.591Z,11.50
2022-10-15T07:46:09.370Z,11.52
2022-10-15T07:46:40.823Z,11.49
2022-10-15T07:47:12.339Z,11.48
2022-10-15T07:47:43.854Z,11.48
2022-10-15T07:48:19.984Z,11.48
2022-10-15T07:48:51.482Z,11.50
2022-10-15T07:49:22.963Z,11.50
2022-10-15T07:49:54.590Z,11.51
2022-10-15T07:50:29.200Z,11.51
2022-10-15T07:51:07.129Z,11.50
2022-10-15T07:51:38.727Z,11.52
2022-10-15T07:52:10.321Z,11.55
2022-10-15T07:52:41.994Z,11.53
2022-10-15T07:53:13.594Z,11.51
2022-10-15T07:53:47.362Z,11.51
2022-10-15T07:54:18.877Z,11.51
2022-10-15T07:54:50.314Z,11.53
2022-10-15T07:55:24.079Z,11.51
2022-10-15T07:56:01.844Z,11.54
2022-10-15T07:56:36.991Z,11.54
2022-10-15T07:57:09.177Z,11.55
2022-10-15T07:57:40.786Z,11.53
2022-10-15T07:58:12.279Z,11.55
2022-10-15T07:58:51.304Z,11.54
2022-10-15T07:59:22.819Z,11.52
2022-10-15T07:59:54.430Z,11.55
2022-10-15T08:00:26.048Z,11.57
2022-10-15T08:01:05.356Z,11.57
2022-10-15T08:01:36.843Z,11.60
2022-10-15T08:02:14.940Z,11.58
2022-10-15T08:02:46.961Z,11.56
2022-10-15T08:03:23.862Z,11.55
2022-10-15T08:03:55.467Z,11.58
2022-10-15T08:04:29.523Z,11.60
2022-10-15T08:05:00.965Z,11.58
2022-10-15T08:05:33.579Z,11.56
2022-10-15T08:06:07.404Z,11.58
2022-10-15T08:06:38.847Z,11.56
2022-10-15T08:07:10.616Z,11.59
2022-10-15T08:07:42.090Z,11.60
2022-10-15T08:08:15.476Z,11.60
2022-10-15T08:08:47.787Z,11.60
2022-10-15T08:09:19.264Z,11.60
2022-10-15T08:09:51.191Z,11.60
2022-10-15T08:10:22.862Z,11.61
2022-10-15T08:10:54.406Z,11.66
2022-10-15T08:11:25.888Z,11.66
2022-10-15T08:11:57.425Z,11.63
2022-10-15T08:12:28.943Z,11.64
2022-10-15T08:13:00.376Z,11.64
2022-10-15T08:13:31.845Z,11.66
2022-10-15T08:14:04.074Z,11.64
2022-10-15T08:14:36.586Z,11.64
2022-10-15T08:15:08.582Z,11.68
2022-10-15T08:15:41.180Z,11.66
2022-10-15T08:16:14.703Z,11.69
2022-10-15T08:16:53.627Z,11.69
2022-10-15T08:17:25.135Z,11.69
2022-10-15T08:17:56.640Z,11.68
2022-10-15T08:18:28.390Z,11.71
2022-10-15T08:19:00.648Z,11.68
2022-10-15T08:19:32.420Z,11.69
2022-10-15T08:20:04.498Z,11.72
2022-10-15T08:20:37.546Z,11.75
2022-10-15T08:21:10.795Z,11.74
2022-10-15T08:21:43.953Z,11.74
2022-10-15T08:22:18.162Z,11.74
2022-10-15T08:22:49.686Z,11.78
2022-10-15T08:23:21.151Z,11.76
2022-10-15T08:23:52.688Z,11.76
2022-10-15T08:24:30.645Z,11.77
2022-10-15T08:25:02.338Z,11.79
2022-10-15T08:25:33.848Z,11.81
2022-10-15T08:26:05.916Z,11.81
2022-10-15T08:26:37.656Z,11.81
2022-10-15T08:27:09.146Z,11.83
2022-10-15T08:27:40.910Z,11.85
2022-10-15T08:28:12.430Z,11.87
2022-10-15T08:28:44.016Z,11.89
2022-10-15T08:29:15.856Z,11.92
2022-10-15T08:29:47.410Z,11.94
2022-10-15T08:30:19.023Z,11.97
2022-10-15T08:30:50.621Z,12.01
2022-10-15T08:31:22.114Z,12.02
2022-10-15T08:31:53.609Z,12.07
2022-10-15T08:32:28.300Z,12.09
2022-10-15T08:32:59.790Z,12.11
2022-10-15T08:33:31.755Z,12.16
2022-10-15T08:34:03.451Z,12.21
2022-10-15T08:34:35.044Z,12.22